Time;durP1;ratioP1;P1;durP2;ratioP2;P2;SDS_P1;SDS_P2;PMS_P1;PMS_P2;Temp;Humidity;BMP_temperature;BMP_pressure;BME280_temperature;BME280_humidity;BME280_pressure;Samples;Min_cycle;Max_cycle;Signal;HPM_P1;HPM_P2
2023/08/31 00:00:36;;;;;;;1.10;0.40;;;;;;;15.28;100.00;98570.25;110099;1264;22481;-57
2023/08/31 00:03:24;;;;;;;0.70;0.40;;;;;;;15.30;100.00;98573.75;109985;1275;99365;-57
2023/08/31 00:05:53;;;;;;;2.40;0.30;;;;;;;15.33;100.00;98576.52;109996;1274;99519;-57
2023/08/31 00:08:22;;;;;;;0.80;0.40;;;;;;;15.34;100.00;98577.09;110062;1271;22335;-56
2023/08/31 00:10:58;;;;;;;0.60;0.30;;;;;;;15.35;100.00;98576.98;109910;1274;99876;-57
2023/08/31 00:13:27;;;;;;;0.60;0.30;;;;;;;15.38;100.00;98580.80;110062;1274;22377;-57
2023/08/31 00:15:58;;;;;;;0.40;0.40;;;;;;;15.35;100.00;98577.48;110014;1275;99264;-57
2023/08/31 00:18:27;;;;;;;0.50;0.50;;;;;;;15.35;100.00;98577.71;110108;1277;22292;-57
2023/08/31 00:20:55;;;;;;;0.50;0.30;;;;;;;15.34;100.00;98574.45;109972;1274;99579;-57
2023/08/31 00:23:24;;;;;;;1.20;0.50;;;;;;;15.33;100.00;98574.55;109973;1274;99895;-57
2023/08/31 00:25:53;;;;;;;1.20;0.40;;;;;;;15.31;100.00;98578.36;110081;1274;22455;-57
2023/08/31 00:28:22;;;;;;;0.70;0.50;;;;;;;15.27;100.00;98576.12;109954;1274;100291;-57
2023/08/31 00:30:51;;;;;;;0.90;0.30;;;;;;;15.25;100.00;98570.32;110010;1275;22820;-57
2023/08/31 00:33:20;;;;;;;1.20;0.40;;;;;;;15.26;100.00;98572.83;110005;1274;99306;-57
2023/08/31 00:35:49;;;;;;;2.00;0.30;;;;;;;15.25;100.00;98574.03;110001;1274;100169;-57
2023/08/31 00:38:17;;;;;;;0.60;0.40;;;;;;;15.26;100.00;98571.48;109974;1271;22300;-57
2023/08/31 00:40:46;;;;;;;0.70;0.40;;;;;;;15.28;100.00;98566.86;109937;1277;100107;-57
2023/08/31 00:43:15;;;;;;;0.50;0.40;;;;;;;15.31;100.00;98564.92;110073;1275;22812;-57
2023/08/31 00:45:45;;;;;;;1.00;0.40;;;;;;;15.32;100.00;98562.91;109996;1274;99777;-57
2023/08/31 00:48:18;;;;;;;0.60;0.40;;;;;;;15.31;100.00;98565.95;109983;1275;100053;-57
2023/08/31 00:50:46;;;;;;;0.50;0.40;;;;;;;15.32;100.00;98568.64;109986;1275;100047;-57
2023/08/31 00:53:17;;;;;;;1.70;0.50;;;;;;;15.36;100.00;98567.61;109967;1275;99582;-57
2023/08/31 00:55:45;;;;;;;0.90;0.40;;;;;;;15.39;100.00;98572.80;109955;1276;22268;-57
2023/08/31 00:58:15;;;;;;;0.80;0.60;;;;;;;15.37;100.00;98575.41;109910;1274;99432;-57
2023/08/31 01:01:15;;;;;;;0.50;0.40;;;;;;;15.35;100.00;98573.12;110091;1274;23649;-57
2023/08/31 01:04:23;;;;;;;0.60;0.60;;;;;;;15.36;100.00;98577.41;109924;1275;99317;-57
2023/08/31 01:07:06;;;;;;;0.50;0.50;;;;;;;15.35;100.00;98581.35;110019;1274;22295;-57
2023/08/31 01:09:39;;;;;;;0.60;0.50;;;;;;;15.33;100.00;98577.73;109999;1274;100015;-56
2023/08/31 01:12:12;;;;;;;1.10;0.60;;;;;;;15.32;100.00;98580.23;109962;1271;100176;-57
2023/08/31 01:15:04;;;;;;;0.60;0.50;;;;;;;15.31;100.00;98580.52;109957;1274;100585;-57
2023/08/31 01:17:38;;;;;;;3.10;1.20;;;;;;;15.30;100.00;98581.80;109982;1274;100048;-57
2023/08/31 01:20:08;;;;;;;0.50;0.40;;;;;;;15.26;100.00;98581.59;110035;1277;22291;-57
2023/08/31 01:22:57;;;;;;;0.60;0.40;;;;;;;15.23;100.00;98581.35;109902;1273;99993;-57
2023/08/31 01:25:27;;;;;;;0.20;0.20;;;;;;;15.27;100.00;98580.30;110089;1275;22167;-57
2023/08/31 01:27:56;;;;;;;0.50;0.20;;;;;;;15.29;100.00;98578.72;109958;1274;98287;-57
2023/08/31 01:30:25;;;;;;;0.80;0.70;;;;;;;15.31;100.00;98575.77;109989;1274;99751;-57
2023/08/31 01:32:53;;;;;;;0.40;0.30;;;;;;;15.31;100.00;98576.42;109998;1274;99825;-57
2023/08/31 01:35:23;;;;;;;0.40;0.30;;;;;;;15.30;100.00;98583.34;109990;1275;100586;-58
2023/08/31 01:37:57;;;;;;;0.40;0.20;;;;;;;15.30;100.00;98580.57;110092;1274;22670;-57
2023/08/31 01:40:33;;;;;;;0.30;0.20;;;;;;;15.29;100.00;98581.55;109873;1274;100187;-57
2023/08/31 01:43:06;;;;;;;0.50;0.20;;;;;;;15.26;100.00;98580.08;110036;1274;22671;-57
2023/08/31 01:45:37;;;;;;;0.10;0.10;;;;;;;15.25;100.00;98569.94;109976;1275;99818;-57
2023/08/31 01:48:06;;;;;;;0.30;0.20;;;;;;;15.25;100.00;98572.75;109985;1273;99693;-57
2023/08/31 01:50:34;;;;;;;0.00;0.00;;;;;;;15.24;100.00;98572.14;109966;1274;100529;-57
2023/08/31 01:53:04;;;;;;;0.00;0.00;;;;;;;15.22;100.00;98571.05;109977;1274;100103;-57
2023/08/31 01:55:33;;;;;;;0.00;0.00;;;;;;;15.19;100.00;98572.23;110036;1274;22423;-57
2023/08/31 01:58:01;;;;;;;1.20;0.10;;;;;;;15.18;100.00;98574.38;109943;1274;99943;-57
2023/08/31 02:00:34;;;;;;;0.10;0.10;;;;;;;15.15;100.00;98573.83;110096;1275;22316;-57
2023/08/31 02:03:03;;;;;;;0.10;0.10;;;;;;;15.17;100.00;98566.25;109982;1275;99549;-57
2023/08/31 02:05:32;;;;;;;0.10;0.10;;;;;;;15.21;100.00;98562.98;109991;1274;99889;-57
2023/08/31 02:08:00;;;;;;;0.10;0.10;;;;;;;15.20;100.00;98562.16;110046;1274;22276;-57
2023/08/31 02:10:29;;;;;;;0.10;0.10;;;;;;;15.20;100.00;98567.76;109890;1276;100001;-57
2023/08/31 02:12:58;;;;;;;0.00;0.00;;;;;;;15.18;100.00;98572.62;110088;1274;22295;-57
2023/08/31 02:15:26;;;;;;;0.10;0.10;;;;;;;15.18;100.00;98574.63;109983;1275;99470;-58
2023/08/31 02:17:55;;;;;;;0.00;0.00;;;;;;;15.17;100.00;98576.09;109893;1275;99807;-57
2023/08/31 02:20:24;;;;;;;0.20;0.00;;;;;;;15.15;100.00;98572.75;109998;1274;22337;-57
2023/08/31 02:22:52;;;;;;;0.10;0.00;;;;;;;15.14;100.00;98574.21;109977;1271;99607;-57
2023/08/31 02:25:21;;;;;;;0.10;0.10;;;;;;;15.11;100.00;98574.51;110023;1275;22132;-57
2023/08/31 02:27:49;;;;;;;0.10;0.00;;;;;;;15.05;100.00;98577.45;109990;1274;100489;-57
2023/08/31 02:30:18;;;;;;;0.20;0.10;;;;;;;15.02;100.00;98572.07;109977;1274;100254;-57
2023/08/31 02:32:47;;;;;;;0.30;0.10;;;;;;;15.00;100.00;98572.39;110005;1274;100160;-57
2023/08/31 02:35:15;;;;;;;0.00;0.00;;;;;;;14.98;100.00;98570.61;109973;1275;99458;-57
2023/08/31 02:37:44;;;;;;;0.10;0.10;;;;;;;14.98;100.00;98566.23;110073;1274;22962;-57
2023/08/31 02:40:13;;;;;;;0.10;0.00;;;;;;;14.99;100.00;98564.19;109851;1277;99837;-57
2023/08/31 02:42:42;;;;;;;0.30;0.30;;;;;;;15.00;100.00;98566.94;110027;1274;22330;-57
2023/08/31 02:45:10;;;;;;;3.60;1.40;;;;;;;15.01;100.00;98569.35;109967;1278;100183;-58
2023/08/31 02:47:38;;;;;;;0.10;0.10;;;;;;;14.95;100.00;98567.21;109949;1275;99519;-57
2023/08/31 02:50:08;;;;;;;0.10;0.10;;;;;;;14.90;100.00;98564.46;110067;1275;22211;-57
2023/08/31 02:52:37;;;;;;;0.20;0.20;;;;;;;14.90;100.00;98566.05;109914;1275;99741;-57
2023/08/31 02:55:06;;;;;;;0.30;0.10;;;;;;;14.94;100.00;98566.91;110039;1275;22359;-57
2023/08/31 02:57:34;;;;;;;0.20;0.20;;;;;;;14.96;100.00;98568.34;110023;1274;99913;-57
2023/08/31 03:00:08;;;;;;;0.60;0.20;;;;;;;15.03;100.00;98572.20;109984;1274;99822;-57
2023/08/31 03:02:37;;;;;;;1.50;0.10;;;;;;;15.07;100.00;98568.86;109966;1278;99846;-57
2023/08/31 03:05:06;;;;;;;1.10;0.20;;;;;;;15.13;100.00;98573.07;109981;1276;99336;-57
2023/08/31 03:07:35;;;;;;;1.50;0.10;;;;;;;15.14;100.00;98575.79;110072;1280;22230;-57
2023/08/31 03:10:04;;;;;;;2.30;0.20;;;;;;;15.13;100.00;98579.77;109983;1277;99507;-57
2023/08/31 03:12:32;;;;;;;0.50;0.30;;;;;;;15.13;100.00;98576.75;110091;1275;22879;-57
2023/08/31 03:15:01;;;;;;;1.40;0.50;;;;;;;15.14;100.00;98580.38;109873;1276;99741;-57
2023/08/31 03:17:30;;;;;;;0.30;0.20;;;;;;;15.19;100.00;98585.40;109910;1278;99887;-57
2023/08/31 03:19:58;;;;;;;0.40;0.20;;;;;;;15.18;100.00;98589.13;110102;1275;22965;-57
2023/08/31 03:22:26;;;;;;;0.20;0.20;;;;;;;15.22;100.00;98592.50;109919;1275;99581;-57
2023/08/31 03:24:55;;;;;;;1.20;0.20;;;;;;;15.20;100.00;98584.27;110066;1274;22614;-57
2023/08/31 03:27:24;;;;;;;1.30;0.40;;;;;;;15.20;100.00;98589.11;109952;1273;99861;-57
2023/08/31 03:29:53;;;;;;;0.70;0.30;;;;;;;15.20;100.00;98595.44;109951;1274;99719;-57
2023/08/31 03:32:22;;;;;;;0.70;0.30;;;;;;;15.19;100.00;98596.58;110079;1273;22151;-57
2023/08/31 03:34:50;;;;;;;0.20;0.20;;;;;;;15.11;100.00;98600.74;109923;1273;99436;-57
2023/08/31 03:37:19;;;;;;;0.20;0.10;;;;;;;15.10;100.00;98602.30;110054;1275;23711;-57
2023/08/31 03:39:48;;;;;;;0.80;0.30;;;;;;;15.14;100.00;98599.27;109954;1275;99697;-57
2023/08/31 03:42:17;;;;;;;0.50;0.30;;;;;;;15.13;100.00;98602.52;109989;1274;99667;-57
2023/08/31 03:44:45;;;;;;;0.40;0.30;;;;;;;14.99;100.00;98605.25;109979;1274;99574;-57
2023/08/31 03:47:14;;;;;;;1.00;0.50;;;;;;;15.01;100.00;98600.20;110005;1274;100207;-57
2023/08/31 03:49:42;;;;;;;2.60;0.30;;;;;;;14.96;100.00;98602.35;110076;1277;22300;-57
2023/08/31 03:52:11;;;;;;;0.90;0.40;;;;;;;14.89;100.00;98605.38;109871;1274;99891;-57
2023/08/31 03:54:39;;;;;;;1.80;0.60;;;;;;;14.80;100.00;98605.64;110039;1274;22988;-57
2023/08/31 03:57:07;;;;;;;1.60;0.60;;;;;;;14.73;100.00;98606.67;109936;1267;100167;-57
2023/08/31 03:59:36;;;;;;;0.60;0.50;;;;;;;14.69;100.00;98610.05;109979;1274;100172;-56
2023/08/31 04:02:05;;;;;;;1.20;0.20;;;;;;;14.61;100.00;98605.63;110040;1274;22123;-57
2023/08/31 04:04:34;;;;;;;0.90;0.60;;;;;;;14.58;100.00;98608.98;109883;1275;99816;-57
2023/08/31 04:07:02;;;;;;;0.50;0.50;;;;;;;14.57;100.00;98613.48;110076;1273;22170;-57
2023/08/31 04:09:30;;;;;;;1.50;0.70;;;;;;;14.63;100.00;98612.85;109968;1274;99873;-57
2023/08/31 04:11:59;;;;;;;0.40;0.30;;;;;;;14.61;100.00;98613.64;109971;1273;99799;-57
2023/08/31 04:14:28;;;;;;;0.70;0.50;;;;;;;14.58;100.00;98613.06;110062;1276;23054;-57
2023/08/31 04:16:57;;;;;;;1.10;0.40;;;;;;;14.61;100.00;98613.88;109930;1272;99313;-57
2023/08/31 04:19:25;;;;;;;0.50;0.30;;;;;;;14.66;100.00;98609.95;110071;1270;22305;-56
2023/08/31 04:21:54;;;;;;;0.40;0.40;;;;;;;14.71;100.00;98614.80;109994;1275;99860;-57
2023/08/31 04:24:22;;;;;;;1.00;0.50;;;;;;;14.69;100.00;98616.89;110000;1274;99030;-57
2023/08/31 04:26:51;;;;;;;1.00;0.40;;;;;;;14.66;100.00;98620.27;110035;1276;99509;-57
2023/08/31 04:29:19;;;;;;;1.00;0.40;;;;;;;14.59;100.00;98623.12;109858;1274;100358;-58
2023/08/31 04:31:48;;;;;;;0.30;0.20;;;;;;;14.54;100.00;98624.86;110078;1273;22274;-56
2023/08/31 04:34:17;;;;;;;1.10;0.30;;;;;;;14.63;100.00;98622.45;109810;1275;99687;-56
2023/08/31 04:36:45;;;;;;;0.60;0.40;;;;;;;14.63;100.00;98628.73;110066;1273;22156;-57
2023/08/31 04:39:14;;;;;;;1.80;0.30;;;;;;;14.64;100.00;98630.06;109969;1274;101870;-56
2023/08/31 04:41:43;;;;;;;0.80;0.40;;;;;;;14.68;100.00;98630.13;109962;1273;99485;-56
2023/08/31 04:44:11;;;;;;;1.00;0.50;;;;;;;14.72;100.00;98626.23;110034;1273;22991;-57
2023/08/31 04:46:41;;;;;;;2.60;0.50;;;;;;;14.72;100.00;98624.52;109907;1273;100405;-57
2023/08/31 04:49:10;;;;;;;3.60;0.60;;;;;;;14.81;100.00;98621.64;110076;1274;22254;-56
2023/08/31 04:51:39;;;;;;;2.70;0.70;;;;;;;14.80;100.00;98619.63;109991;1274;99449;-57
2023/08/31 04:54:08;;;;;;;0.80;0.70;;;;;;;14.85;100.00;98615.19;110004;1273;99438;-57
2023/08/31 04:56:38;;;;;;;1.40;0.70;;;;;;;14.95;100.00;98613.44;110041;1274;100654;-57
2023/08/31 04:59:07;;;;;;;0.90;0.50;;;;;;;14.99;100.00;98612.92;109883;1275;99167;-57
2023/08/31 05:01:36;;;;;;;2.40;1.10;;;;;;;15.17;100.00;98616.94;110052;1273;24169;-56
2023/08/31 05:04:04;;;;;;;11.60;1.70;;;;;;;15.25;100.00;98613.06;109879;1273;99937;-57
2023/08/31 05:06:33;;;;;;;1.50;0.90;;;;;;;15.28;100.00;98613.21;110055;1273;23112;-57
2023/08/31 05:09:02;;;;;;;1.20;0.50;;;;;;;15.29;100.00;98610.84;109965;1274;100071;-56
2023/08/31 05:11:31;;;;;;;3.80;0.70;;;;;;;15.31;100.00;98611.66;109985;1274;98822;-57
2023/08/31 05:13:59;;;;;;;4.80;1.40;;;;;;;15.33;100.00;98607.63;110071;1273;22348;-56
2023/08/31 05:16:28;;;;;;;0.90;0.60;;;;;;;15.45;100.00;98607.86;109874;1273;99772;-57
2023/08/31 05:18:56;;;;;;;1.30;0.80;;;;;;;15.53;100.00;98609.51;110007;1273;22527;-57
2023/08/31 05:21:25;;;;;;;2.80;0.90;;;;;;;15.50;100.00;98616.23;109990;1274;100674;-56
2023/08/31 05:23:53;;;;;;;0.90;0.60;;;;;;;15.41;100.00;98618.75;109977;1273;99978;-56
2023/08/31 05:26:23;;;;;;;0.90;0.70;;;;;;;15.41;100.00;98618.56;110065;1274;22259;-56
2023/08/31 05:28:51;;;;;;;1.50;1.00;;;;;;;15.40;100.00;98619.55;109872;1276;100486;-56
2023/08/31 05:31:20;;;;;;;1.20;0.60;;;;;;;15.36;100.00;98620.35;110057;1275;23000;-57
2023/08/31 05:33:48;;;;;;;1.90;0.70;;;;;;;15.35;100.00;98618.05;109844;1275;99542;-56
2023/08/31 05:36:17;;;;;;;1.40;0.70;;;;;;;15.34;100.00;98615.77;109951;1273;99701;-56
2023/08/31 05:38:45;;;;;;;1.60;0.50;;;;;;;15.35;100.00;98616.42;109937;1276;100081;-56
2023/08/31 05:41:14;;;;;;;3.20;0.90;;;;;;;15.37;100.00;98613.95;109932;1275;100073;-57
2023/08/31 05:43:42;;;;;;;2.50;0.90;;;;;;;15.42;100.00;98614.58;109999;1275;22872;-56
2023/08/31 05:46:11;;;;;;;1.50;0.50;;;;;;;15.52;100.00;98610.13;109880;1275;99918;-55
2023/08/31 05:48:39;;;;;;;1.20;0.70;;;;;;;15.62;100.00;98617.30;109950;1275;23568;-57
2023/08/31 05:51:09;;;;;;;0.70;0.50;;;;;;;15.78;100.00;98623.64;109855;1275;100404;-56
2023/08/31 05:53:37;;;;;;;1.80;0.70;;;;;;;15.92;100.00;98629.90;109897;1274;99560;-57
2023/08/31 05:56:09;;;;;;;2.10;0.60;;;;;;;15.91;100.00;98631.50;110087;1252;22464;31
2023/08/31 05:58:37;;;;;;;1.30;0.60;;;;;;;15.88;100.00;98632.66;109977;1271;100078;-57
2023/08/31 06:01:07;;;;;;;1.60;0.70;;;;;;;15.92;100.00;98634.94;110131;1271;22273;-56
2023/08/31 06:05:25;;;;;;;1.30;0.80;;;;;;;15.97;100.00;98634.33;101758;1271;10777943;-56
2023/08/31 06:08:09;;;;;;;1.30;0.60;;;;;;;16.00;100.00;98634.77;110200;1270;22216;-56
2023/08/31 06:10:38;;;;;;;1.50;0.80;;;;;;;16.09;100.00;98634.20;110106;1270;99945;-56
2023/08/31 06:13:19;;;;;;;0.70;0.60;;;;;;;16.25;100.00;98632.25;110305;1271;22301;-57
2023/08/31 06:16:23;;;;;;;1.80;0.90;;;;;;;16.44;100.00;98631.65;109964;1271;100036;-57
2023/08/31 06:18:52;;;;;;;1.20;0.80;;;;;;;16.61;100.00;98632.54;110276;1271;22304;-56
2023/08/31 06:21:21;;;;;;;1.70;0.80;;;;;;;16.88;100.00;98635.23;110097;1272;100080;-53
2023/08/31 06:24:14;;;;;;;2.00;0.90;;;;;;;17.16;100.00;98629.05;110291;1270;100132;-57
2023/08/31 06:27:12;;;;;;;1.30;0.80;;;;;;;17.42;100.00;98628.73;110151;1270;99908;-57
2023/08/31 06:29:41;;;;;;;1.00;0.80;;;;;;;17.63;100.00;98624.95;110048;1270;99892;-57
2023/08/31 06:32:09;;;;;;;1.20;0.80;;;;;;;17.79;100.00;98623.19;110364;1270;22113;-59
2023/08/31 06:34:38;;;;;;;3.00;1.00;;;;;;;17.96;100.00;98627.41;110191;1270;100061;-58
2023/08/31 06:37:07;;;;;;;3.00;0.80;;;;;;;18.09;100.00;98629.59;110395;1270;22372;-59
2023/08/31 06:39:35;;;;;;;1.30;0.60;;;;;;;18.24;100.00;98634.70;110343;1270;99326;-58
2023/08/31 06:42:05;;;;;;;0.90;0.50;;;;;;;18.39;100.00;98634.55;110307;1270;99902;-59
2023/08/31 06:44:33;;;;;;;2.30;0.60;;;;;;;18.53;100.00;98636.33;110313;1269;99600;-60
2023/08/31 06:47:03;;;;;;;1.40;0.90;;;;;;;18.61;100.00;98632.42;110254;1267;100309;-58
2023/08/31 06:49:34;;;;;;;1.40;0.80;;;;;;;18.84;100.00;98634.16;110122;1270;22336;-59
2023/08/31 06:52:03;;;;;;;3.80;1.40;;;;;;;19.27;100.00;98636.30;110018;1270;99791;-58
2023/08/31 06:54:42;;;;;;;1.20;1.00;;;;;;;19.69;100.00;98638.40;110181;1270;22598;-59
2023/08/31 06:57:18;;;;;;;0.60;0.40;;;;;;;20.15;100.00;98639.07;109988;1271;100174;-59
2023/08/31 06:59:50;;;;;;;1.40;0.40;;;;;;;20.73;100.00;98633.17;110003;1272;99627;-61
2023/08/31 07:02:19;;;;;;;1.60;0.50;;;;;;;21.46;100.00;98631.34;110151;1266;22355;-60
2023/08/31 07:04:48;;;;;;;1.10;0.40;;;;;;;22.01;100.00;98629.70;110070;1271;99562;-60
2023/08/31 07:07:17;;;;;;;1.60;0.50;;;;;;;22.52;100.00;98632.78;110238;1271;22123;-60
2023/08/31 07:09:50;;;;;;;1.30;0.50;;;;;;;22.80;100.00;98634.69;110060;1273;99387;-59
2023/08/31 07:12:19;;;;;;;1.30;0.50;;;;;;;23.02;100.00;98641.24;110197;1271;99674;-59
2023/08/31 07:14:47;;;;;;;0.90;0.40;;;;;;;23.09;100.00;98641.42;110142;1272;99507;-58
2023/08/31 07:17:20;;;;;;;0.30;0.20;;;;;;;23.14;100.00;98641.85;110171;1272;99637;-57
2023/08/31 07:19:49;;;;;;;0.70;0.40;;;;;;;22.75;100.00;98639.02;110206;1272;22297;-55
2023/08/31 07:22:18;;;;;;;0.90;0.50;;;;;;;22.32;100.00;98646.81;110098;1260;99500;-57
2023/08/31 07:24:46;;;;;;;0.40;0.30;;;;;;;21.95;100.00;98646.33;110261;1271;23127;-56
2023/08/31 07:27:15;;;;;;;1.50;0.50;;;;;;;21.67;100.00;98655.83;110186;1271;99970;-57
2023/08/31 07:29:47;;;;;;;0.90;0.50;;;;;;;21.74;100.00;98659.82;110096;1272;99693;-57
2023/08/31 07:32:37;;;;;;;1.00;0.40;;;;;;;21.75;100.00;98658.86;110169;1265;23002;-58
2023/08/31 07:35:06;;;;;;;2.50;0.50;;;;;;;21.81;100.00;98660.30;110137;1271;99348;-57
2023/08/31 07:37:37;;;;;;;0.60;0.40;;;;;;;21.86;100.00;98661.71;110217;1271;23541;-57
2023/08/31 07:40:09;;;;;;;0.50;0.30;;;;;;;21.81;100.00;98664.18;110155;1271;99384;-58
2023/08/31 07:42:46;;;;;;;0.60;0.40;;;;;;;21.77;100.00;98662.20;110135;1271;22100;-58
2023/08/31 07:45:51;;;;;;;;;;;;;;;;;;;;;
2023/08/31 07:48:23;;;;;;;0.40;0.30;;;;;;;22.06;100.00;98653.20;110104;1271;99880;-58
2023/08/31 07:50:51;;;;;;;1.00;0.40;;;;;;;22.28;100.00;98652.95;110092;1271;99874;-58
2023/08/31 07:53:24;;;;;;;0.70;0.60;;;;;;;22.39;100.00;98652.49;110078;1272;101452;-57
2023/08/31 07:56:03;;;;;;;0.30;0.20;;;;;;;22.16;99.46;98653.88;110096;1271;23193;-58
2023/08/31 07:58:41;;;;;;;1.40;0.60;;;;;;;21.90;99.12;98659.64;110146;1270;99459;-58
2023/08/31 08:01:10;;;;;;;0.50;0.30;;;;;;;21.82;99.54;98661.27;110264;1272;23050;-57
2023/08/31 08:03:39;;;;;;;2.10;0.40;;;;;;;21.91;99.60;98665.76;110062;1270;99233;-57
2023/08/31 08:06:11;;;;;;;0.60;0.40;;;;;;;21.90;98.68;98666.58;110247;1264;99232;-57
2023/08/31 08:08:40;;;;;;;1.80;0.30;;;;;;;21.64;98.37;98674.88;110081;1270;99780;-56
2023/08/31 08:11:09;;;;;;;1.70;0.80;;;;;;;21.54;98.16;98677.92;110214;1270;100134;-56
2023/08/31 08:13:37;;;;;;;0.80;0.30;;;;;;;21.48;97.89;98681.10;110358;1270;22167;-53
2023/08/31 08:16:06;;;;;;;0.20;0.20;;;;;;;21.55;98.21;98681.90;110249;1270;99676;-51
2023/08/31 08:18:35;;;;;;;1.00;0.20;;;;;;;21.72;97.88;98685.56;110092;1270;99116;-52
2023/08/31 08:21:03;;;;;;;0.90;0.70;;;;;;;21.84;97.58;98683.51;110050;1273;99404;-54
2023/08/31 08:23:32;;;;;;;0.60;0.40;;;;;;;21.98;97.59;98683.66;110284;1270;99487;-54
2023/08/31 08:26:03;;;;;;;0.70;0.30;;;;;;;22.12;97.17;98684.96;110254;1270;22129;-53
2023/08/31 08:28:33;;;;;;;0.40;0.20;;;;;;;22.35;97.02;98679.90;110032;1270;101626;-53
2023/08/31 08:31:04;;;;;;;0.70;0.30;;;;;;;22.77;97.37;98677.52;110322;1270;22128;-54
2023/08/31 08:33:33;;;;;;;0.50;0.20;;;;;;;23.31;96.97;98675.15;110199;1270;99101;-54
2023/08/31 08:36:02;;;;;;;0.70;0.50;;;;;;;24.02;97.12;98678.33;110087;1272;99771;-55
2023/08/31 08:38:30;;;;;;;1.60;0.40;;;;;;;24.70;96.42;98678.41;110287;1269;22275;-55
2023/08/31 08:41:07;;;;;;;1.20;0.40;;;;;;;24.79;94.75;98678.98;110022;1273;101720;-54
2023/08/31 08:43:37;;;;;;;2.70;0.60;;;;;;;24.57;93.75;98676.73;110357;1271;22457;-51
2023/08/31 08:46:06;;;;;;;0.80;0.30;;;;;;;24.73;94.53;98684.75;110277;1271;99122;-54
2023/08/31 08:48:36;;;;;;;1.70;0.60;;;;;;;24.81;93.19;98693.67;110291;1270;99017;-56
2023/08/31 08:51:07;;;;;;;0.80;0.50;;;;;;;24.51;92.34;98692.67;110091;1270;99411;-57
2023/08/31 08:53:37;;;;;;;1.10;0.30;;;;;;;24.19;92.03;98700.29;110181;1270;99192;-57
2023/08/31 08:56:06;;;;;;;0.90;0.40;;;;;;;23.84;92.32;98695.41;110247;1265;22312;-55
2023/08/31 08:58:35;;;;;;;0.60;0.40;;;;;;;23.92;92.54;98698.53;110176;1270;99528;-55
2023/08/31 09:01:07;;;;;;;0.50;0.30;;;;;;;24.22;93.02;98697.95;110344;1271;22266;-55
2023/08/31 09:03:35;;;;;;;0.30;0.20;;;;;;;24.94;92.73;98699.23;110137;1270;99264;-55
2023/08/31 09:06:07;;;;;;;0.50;0.30;;;;;;;25.25;91.17;98702.33;110280;1270;99617;-55
2023/08/31 09:08:39;;;;;;;0.40;0.40;;;;;;;25.09;89.70;98701.28;110191;1272;22280;-55
2023/08/31 09:11:08;;;;;;;0.90;0.30;;;;;;;24.96;89.84;98702.63;110238;1270;99625;-55
2023/08/31 09:13:37;;;;;;;2.00;0.60;;;;;;;25.74;91.29;98702.19;110216;1270;22305;-55
2023/08/31 09:16:05;;;;;;;0.20;0.20;;;;;;;26.69;90.27;98701.23;110294;1270;99109;-53
2023/08/31 09:18:36;;;;;;;1.10;0.30;;;;;;;26.81;88.49;98705.16;110294;1270;99516;-57
2023/08/31 09:21:06;;;;;;;1.30;0.30;;;;;;;27.86;90.40;98706.41;110162;1270;99837;-57
2023/08/31 09:23:35;;;;;;;3.10;0.90;;;;;;;28.41;87.43;98704.59;110291;1270;99180;-57
2023/08/31 09:26:04;;;;;;;0.20;0.20;;;;;;;28.19;86.91;98708.55;110393;1271;22299;-56
2023/08/31 09:28:33;;;;;;;0.70;0.40;;;;;;;28.12;87.44;98709.61;110213;1272;99776;-56
2023/08/31 09:31:05;;;;;;;0.30;0.20;;;;;;;28.54;87.46;98710.67;110256;1272;22173;-56
2023/08/31 09:33:38;;;;;;;0.20;0.10;;;;;;;29.52;85.49;98711.73;110154;1271;99346;-56
2023/08/31 09:36:08;;;;;;;2.80;0.40;;;;;;;30.27;84.97;98714.71;110164;1270;100239;-56
2023/08/31 09:38:43;;;;;;;1.00;0.30;;;;;;;31.06;84.71;98710.05;110252;1270;22172;-57
2023/08/31 09:41:15;;;;;;;0.30;0.10;;;;;;;32.42;84.26;98708.44;110245;1270;99727;-56
2023/08/31 09:43:45;;;;;;;0.70;0.30;;;;;;;32.87;82.30;98710.84;110269;1273;22300;-57
2023/08/31 09:46:15;;;;;;;0.50;0.20;;;;;;;32.48;80.66;98714.35;110285;1270;99699;-56
2023/08/31 09:48:46;;;;;;;0.20;0.20;;;;;;;31.62;78.95;98717.34;110278;1273;22145;-57
2023/08/31 09:51:22;;;;;;;0.90;0.30;;;;;;;31.13;78.70;98719.95;110282;1259;99743;-57
2023/08/31 09:53:57;;;;;;;0.50;0.20;;;;;;;30.64;78.14;98727.02;110309;1272;99749;-56
2023/08/31 09:56:33;;;;;;;0.90;0.30;;;;;;;30.33;77.76;98730.05;110370;1272;22355;-56
2023/08/31 09:59:02;;;;;;;0.80;0.30;;;;;;;30.09;76.25;98733.38;110062;1274;100063;-56
2023/08/31 10:01:32;;;;;;;2.50;0.40;;;;;;;29.66;75.42;98730.80;110335;1270;22333;-56
2023/08/31 10:04:02;;;;;;;1.10;0.50;;;;;;;29.36;75.01;98732.34;110195;1271;99335;-57
2023/08/31 10:06:31;;;;;;;1.00;0.30;;;;;;;29.18;74.05;98728.40;110202;1259;99480;-55
2023/08/31 10:09:02;;;;;;;0.70;0.30;;;;;;;29.09;73.87;98724.86;110215;1271;99253;-54
2023/08/31 10:11:31;;;;;;;5.50;1.00;;;;;;;29.30;73.64;98723.37;110100;1265;99650;-53
2023/08/31 10:14:01;;;;;;;0.80;0.30;;;;;;;29.55;72.79;98713.36;110217;1271;23154;-56
2023/08/31 10:16:31;;;;;;;0.50;0.30;;;;;;;29.66;72.04;98713.66;110184;1269;100186;-55
2023/08/31 10:19:03;;;;;;;1.80;0.80;;;;;;;29.42;70.14;98714.79;110225;1270;22402;-57
2023/08/31 10:21:37;;;;;;;0.20;0.10;;;;;;;28.98;70.15;98710.23;110121;1271;99194;-59
2023/08/31 10:24:06;;;;;;;0.40;0.20;;;;;;;29.04;69.49;98712.44;110148;1272;100217;-56
2023/08/31 10:26:35;;;;;;;1.00;0.30;;;;;;;28.82;68.50;98705.69;110354;1272;22292;-57
2023/08/31 10:29:07;;;;;;;1.00;0.30;;;;;;;29.14;69.55;98703.27;110075;1274;99671;-57
2023/08/31 10:31:37;;;;;;;1.50;0.40;;;;;;;30.83;70.54;98701.84;110281;1270;22425;-58
2023/08/31 10:34:09;;;;;;;0.60;0.20;;;;;;;32.70;69.71;98700.55;110213;1271;99212;-57
2023/08/31 10:36:41;;;;;;;1.10;0.30;;;;;;;33.39;68.48;98696.19;110089;1273;98885;-58
2023/08/31 10:39:19;;;;;;;0.70;0.20;;;;;;;33.26;67.74;98691.27;110097;1270;99493;-57
2023/08/31 10:41:55;;;;;;;2.60;0.30;;;;;;;33.06;66.81;98684.40;110128;1270;99663;-58
2023/08/31 10:44:51;;;;;;;0.50;0.20;;;;;;;32.77;66.00;98690.11;110097;1272;22280;-61
2023/08/31 10:47:40;;;;;;;0.60;0.30;;;;;;;32.47;65.01;98690.55;110208;1271;99249;-55
2023/08/31 10:50:42;;;;;;;0.30;0.10;;;;;;;32.20;64.28;98685.98;110099;1273;22273;-57
2023/08/31 10:53:14;;;;;;;2.30;0.20;;;;;;;32.29;63.65;98686.35;110123;1269;99650;-57
2023/08/31 10:55:52;;;;;;;1.00;0.40;;;;;;;31.57;61.67;98682.71;110350;1272;22294;-56
2023/08/31 10:58:21;;;;;;;0.40;0.20;;;;;;;30.64;61.14;98678.00;110127;1270;99212;-55
2023/08/31 11:00:56;;;;;;;1.30;0.50;;;;;;;30.56;61.30;98681.20;110228;1270;22269;-59
2023/08/31 11:03:25;;;;;;;0.40;0.20;;;;;;;30.85;61.06;98671.70;110216;1270;101488;-57
2023/08/31 11:05:54;;;;;;;1.90;0.50;;;;;;;31.09;61.09;98671.08;110205;1271;99899;-56
2023/08/31 11:08:37;;;;;;;0.50;0.30;;;;;;;31.55;60.23;98672.00;110310;1272;22611;-57
2023/08/31 11:11:06;;;;;;;2.40;0.30;;;;;;;31.60;59.05;98669.73;110066;1270;99025;-56
2023/08/31 11:13:35;;;;;;;0.70;0.30;;;;;;;31.09;58.69;98666.88;110342;1270;22156;-57
2023/08/31 11:16:04;;;;;;;0.70;0.20;;;;;;;30.87;58.19;98667.54;110193;1270;99144;-56
2023/08/31 11:18:33;;;;;;;0.30;0.20;;;;;;;30.51;57.81;98664.77;110222;1272;99629;-57
2023/08/31 11:21:05;;;;;;;0.30;0.20;;;;;;;30.18;57.26;98668.36;110119;1273;99397;-56
2023/08/31 11:23:35;;;;;;;0.60;0.30;;;;;;;29.54;56.63;98670.67;110183;1273;99495;-57
2023/08/31 11:26:04;;;;;;;1.60;0.60;;;;;;;29.02;56.79;98671.90;110337;1271;22119;-58
2023/08/31 11:28:34;;;;;;;0.80;0.10;;;;;;;28.60;56.47;98668.84;110080;1272;99833;-57
2023/08/31 11:31:03;;;;;;;0.70;0.40;;;;;;;27.94;55.59;98671.34;110312;1270;22916;-58
2023/08/31 11:33:36;;;;;;;0.20;0.10;;;;;;;27.47;55.65;98673.11;110243;1270;99473;-58
2023/08/31 11:36:05;;;;;;;0.90;0.50;;;;;;;27.50;56.03;98676.29;110232;1270;99259;-57
2023/08/31 11:38:35;;;;;;;1.50;0.80;;;;;;;27.57;55.47;98683.84;110249;1272;22989;-58